Time;durP1;ratioP1;P1;durP2;ratioP2;P2;SDS_P1;SDS_P2;PMS_P1;PMS_P2;Temp;Humidity;BMP_temperature;BMP_pressure;BME280_temperature;BME280_humidity;BME280_pressure;Samples;Min_cycle;Max_cycle;Signal;HPM_P1;HPM_P2
2021/06/07 00:02:14;;;;;;;7.45;5.68;;;;;;;13.85;83.33;99339.91;6181933;23;20432;-80
2021/06/07 00:04:43;;;;;;;6.63;5.13;;;;;;;13.82;82.77;99332.13;6157171;23;20021;-81
2021/06/07 00:07:10;;;;;;;5.57;5.07;;;;;;;13.80;83.44;99348.63;6155349;23;20027;-80
2021/06/07 00:09:38;;;;;;;6.57;5.20;;;;;;;13.77;83.60;99348.13;6181782;23;20025;-81
2021/06/07 00:12:11;;;;;;;7.18;5.43;;;;;;;13.81;83.29;99341.31;6155290;23;20024;-80
2021/06/07 00:14:38;;;;;;;6.72;5.30;;;;;;;13.80;83.37;99339.63;6130723;23;20431;-79
2021/06/07 00:17:07;;;;;;;5.95;5.45;;;;;;;13.80;83.50;99345.06;6182208;23;20021;-81
2021/06/07 00:19:37;;;;;;;6.75;5.82;;;;;;;13.79;83.54;99343.38;6182302;23;20032;-81
2021/06/07 00:22:03;;;;;;;5.68;5.00;;;;;;;13.73;83.54;99345.75;6181332;23;20557;-80
2021/06/07 00:24:32;;;;;;;6.00;5.43;;;;;;;13.78;83.43;99347.09;6130970;23;20047;-80
2021/06/07 00:27:01;;;;;;;5.85;5.25;;;;;;;13.75;83.45;99351.03;6181851;23;20044;-79
2021/06/07 00:29:27;;;;;;;5.72;5.13;;;;;;;13.73;83.78;99344.91;6155110;23;20145;-81
2021/06/07 00:32:08;;;;;;;6.13;5.53;;;;;;;13.70;83.84;99351.56;6155760;23;20396;-78
2021/06/07 00:34:34;;;;;;;8.65;5.75;;;;;;;13.66;83.85;99342.06;6182645;23;20017;-81
2021/06/07 00:37:00;;;;;;;6.22;5.63;;;;;;;13.68;83.80;99348.19;6156036;23;20013;-78
2021/06/07 00:39:26;;;;;;;6.75;5.50;;;;;;;13.66;84.08;99347.50;6155712;23;20029;-80
2021/06/07 00:41:53;;;;;;;6.20;5.60;;;;;;;13.64;84.27;99346.00;6155080;23;20482;-80
2021/06/07 00:44:22;;;;;;;8.38;5.75;;;;;;;13.60;84.06;99345.53;6182566;23;20025;-80
2021/06/07 00:46:51;;;;;;;6.30;5.47;;;;;;;13.64;84.13;99355.00;6182230;23;20021;-78
2021/06/07 00:49:19;;;;;;;7.15;6.47;;;;;;;13.62;84.20;99353.47;6181728;23;20021;-79
2021/06/07 00:51:46;;;;;;;6.82;5.88;;;;;;;13.62;84.13;99351.59;6181731;23;20039;-80
2021/06/07 00:54:13;;;;;;;6.43;5.80;;;;;;;13.61;84.59;99352.63;6181798;23;20106;-80
2021/06/07 00:56:40;;;;;;;7.18;6.07;;;;;;;13.59;84.51;99349.25;6181608;23;20107;-79
2021/06/07 00:59:11;;;;;;;7.32;6.53;;;;;;;13.57;84.79;99350.47;6181894;23;20423;-80
2021/06/07 01:01:39;;;;;;;7.20;6.43;;;;;;;13.49;85.24;99354.03;6154867;23;20053;-79
2021/06/07 01:04:05;;;;;;;7.55;6.85;;;;;;;13.48;84.99;99352.34;6155229;23;20021;-78
2021/06/07 01:06:32;;;;;;;7.60;6.57;;;;;;;13.47;85.32;99350.66;6154502;23;20020;-80
2021/06/07 01:08:58;;;;;;;7.93;7.13;;;;;;;13.48;85.12;99352.34;6181111;23;20348;-80
2021/06/07 01:11:24;;;;;;;7.75;7.05;;;;;;;13.51;85.00;99354.72;6154333;23;20053;-78
2021/06/07 01:13:51;;;;;;;8.50;7.60;;;;;;;13.46;85.04;99341.69;6155581;23;20068;-81
2021/06/07 01:16:18;;;;;;;9.40;7.43;;;;;;;13.50;85.48;99350.31;6181414;23;20039;-80
2021/06/07 01:18:45;;;;;;;9.43;7.45;;;;;;;13.50;85.40;99353.03;6129855;23;20041;-80
2021/06/07 01:21:15;;;;;;;8.20;7.40;;;;;;;13.54;84.90;99357.09;6154085;23;20048;-79
2021/06/07 01:23:43;;;;;;;8.25;7.45;;;;;;;13.56;85.00;99349.59;6154305;23;20091;-79
2021/06/07 01:26:09;;;;;;;8.30;7.50;;;;;;;13.56;85.16;99346.88;6182052;23;20032;-79
2021/06/07 01:28:36;;;;;;;8.43;7.63;;;;;;;13.63;84.68;99347.00;6155172;23;20025;-80
2021/06/07 01:31:02;;;;;;;8.90;7.97;;;;;;;13.68;84.73;99341.91;6154029;23;20567;-79
2021/06/07 01:33:29;;;;;;;9.30;8.30;;;;;;;13.67;84.71;99346.47;6129550;23;20045;-79
2021/06/07 01:35:59;;;;;;;8.73;7.82;;;;;;;13.73;84.58;99351.19;6180348;23;20021;-80
2021/06/07 01:38:26;;;;;;;9.55;8.55;;;;;;;13.77;84.24;99345.41;6180770;23;20115;-81
2021/06/07 01:40:56;;;;;;;8.85;7.95;;;;;;;13.79;84.14;99340.66;6153745;23;20092;-81
2021/06/07 01:43:25;;;;;;;11.30;9.48;;;;;;;13.82;83.99;99348.41;6154244;23;20402;-79
2021/06/07 01:45:53;;;;;;;10.98;9.32;;;;;;;13.81;84.20;99347.56;6081421;23;20108;-79
2021/06/07 01:48:20;;;;;;;11.20;8.63;;;;;;;13.87;83.92;99346.03;6180310;23;20048;-80
2021/06/07 01:50:46;;;;;;;9.82;8.82;;;;;;;13.82;84.14;99338.44;6180350;23;20028;-80
2021/06/07 01:53:13;;;;;;;11.57;10.20;;;;;;;13.82;84.13;99348.41;6154816;23;20024;-82
2021/06/07 01:55:42;;;;;;;16.85;10.10;;;;;;;13.88;84.09;99347.72;6180305;23;20076;-78
2021/06/07 01:58:10;;;;;;;13.48;10.88;;;;;;;13.90;83.88;99345.69;6180304;23;20021;-82
2021/06/07 02:00:46;;;;;;;11.90;9.65;;;;;;;13.93;83.81;99356.16;6106408;23;20552;-80
2021/06/07 02:03:16;;;;;;;12.32;11.02;;;;;;;13.97;83.80;99358.34;6180845;23;20021;-80
2021/06/07 02:05:43;;;;;;;12.98;11.43;;;;;;;14.02;83.88;99352.38;6106416;23;20313;-81
2021/06/07 02:08:13;;;;;;;12.70;11.38;;;;;;;14.13;83.65;99356.53;6180417;23;20459;-80
2021/06/07 02:10:43;;;;;;;16.70;12.73;;;;;;;14.15;83.31;99355.34;6180127;23;20044;-79
2021/06/07 02:13:11;;;;;;;14.38;11.98;;;;;;;14.28;82.90;99353.88;6153955;23;20043;-80
2021/06/07 02:15:38;;;;;;;16.73;13.65;;;;;;;14.35;83.00;99354.84;6180402;23;20021;-80
2021/06/07 02:18:06;;;;;;;16.20;14.50;;;;;;;14.40;82.59;99346.97;6180826;23;20051;-81
2021/06/07 02:20:33;;;;;;;20.55;14.65;;;;;;;14.48;82.23;99346.91;6179669;23;20040;-79
2021/06/07 02:22:59;;;;;;;17.98;15.02;;;;;;;14.45;82.71;99350.00;6107878;23;20052;-80
2021/06/07 02:25:25;;;;;;;17.95;15.02;;;;;;;14.51;82.62;99352.00;6156978;23;20031;-79
2021/06/07 02:27:51;;;;;;;21.38;18.50;;;;;;;14.53;82.83;99347.22;6183113;23;20033;-80
2021/06/07 02:30:21;;;;;;;24.67;19.45;;;;;;;14.59;82.39;99346.50;6182771;23;20028;-79
2021/06/07 02:32:48;;;;;;;21.80;19.38;;;;;;;14.69;82.20;99352.50;6182957;23;20073;-81
2021/06/07 02:35:15;;;;;;;20.40;18.30;;;;;;;14.76;81.76;99346.31;6180007;23;20341;-79
2021/06/07 02:37:42;;;;;;;23.48;18.30;;;;;;;14.81;81.38;99350.19;6153949;23;20096;-80
2021/06/07 02:40:11;;;;;;;21.50;19.15;;;;;;;14.91;81.27;99355.34;6180280;23;20079;-78
2021/06/07 02:42:40;;;;;;;19.70;17.35;;;;;;;14.96;80.92;99352.94;6180359;23;20070;-82
2021/06/07 02:45:08;;;;;;;18.48;16.58;;;;;;;14.98;81.02;99356.28;6179882;23;20300;-82
2021/06/07 02:47:34;;;;;;;19.77;17.67;;;;;;;15.05;81.32;99353.69;6180276;23;20099;-80
2021/06/07 02:50:00;;;;;;;20.15;17.80;;;;;;;15.05;81.14;99357.25;6181815;23;20013;-81
2021/06/07 02:52:27;;;;;;;18.70;16.75;;;;;;;15.15;80.49;99357.81;6154432;23;20387;-81
2021/06/07 02:54:53;;;;;;;20.67;17.33;;;;;;;15.20;80.23;99352.63;6106568;23;20024;-79
2021/06/07 02:57:19;;;;;;;20.95;17.65;;;;;;;15.34;79.92;99355.53;6185360;23;20021;-83
2021/06/07 02:59:44;;;;;;;21.45;17.35;;;;;;;15.46;79.34;99367.63;6163605;23;20029;-79
2021/06/07 03:02:10;;;;;;;18.73;15.98;;;;;;;15.54;78.64;99366.69;6159693;23;20087;-81
2021/06/07 03:04:36;;;;;;;20.60;16.70;;;;;;;15.67;78.67;99373.19;6159236;23;20060;-80
2021/06/07 03:07:03;;;;;;;20.25;16.50;;;;;;;15.79;77.75;99375.41;6159422;23;20095;-81
2021/06/07 03:09:29;;;;;;;21.70;16.90;;;;;;;15.90;77.79;99362.16;6161671;23;20020;-80
2021/06/07 03:11:55;;;;;;;16.08;14.38;;;;;;;16.02;76.86;99354.31;6164154;23;20067;-81
2021/06/07 03:14:21;;;;;;;16.30;14.18;;;;;;;16.10;76.64;99362.34;6161954;23;20021;-80
2021/06/07 03:16:47;;;;;;;13.88;12.48;;;;;;;16.17;75.95;99353.41;6187240;23;20017;-80
2021/06/07 03:19:13;;;;;;;16.73;12.57;;;;;;;16.28;75.04;99352.88;6187011;23;20024;-82
2021/06/07 03:21:39;;;;;;;15.30;12.25;;;;;;;16.33;74.76;99356.69;6187686;23;20025;-81
2021/06/07 03:24:05;;;;;;;12.85;11.25;;;;;;;16.38;73.88;99359.69;6138731;23;20024;-82
2021/06/07 03:26:31;;;;;;;12.30;10.98;;;;;;;16.48;74.08;99353.88;6190047;23;20043;-81
2021/06/07 03:28:57;;;;;;;11.48;10.38;;;;;;;16.50;73.73;99357.28;6188193;23;20017;-82
2021/06/07 03:31:23;;;;;;;14.05;11.48;;;;;;;16.59;73.44;99356.06;6185483;23;20017;-80
2021/06/07 03:33:49;;;;;;;10.73;9.65;;;;;;;16.62;73.09;99350.22;6186613;23;20084;-83
2021/06/07 03:36:15;;;;;;;10.05;9.05;;;;;;;16.68;72.38;99353.22;6135516;23;20501;-80
2021/06/07 03:38:41;;;;;;;10.95;8.80;;;;;;;16.77;72.19;99352.06;6185650;23;20099;-82
2021/06/07 03:41:08;;;;;;;10.05;8.80;;;;;;;16.86;72.25;99357.19;6161944;23;20021;-80
2021/06/07 03:43:36;;;;;;;10.32;9.07;;;;;;;16.83;72.70;99354.00;6136568;23;20021;-81
2021/06/07 03:46:02;;;;;;;10.93;8.70;;;;;;;16.85;72.63;99344.53;6109389;23;20043;-82
2021/06/07 03:48:29;;;;;;;10.30;8.68;;;;;;;17.08;72.06;99344.28;6133973;23;20021;-80
2021/06/07 03:50:55;;;;;;;10.95;9.60;;;;;;;17.19;72.23;99340.16;6159569;23;20079;-83
2021/06/07 03:53:21;;;;;;;13.68;10.48;;;;;;;17.32;71.83;99351.13;6184611;23;20032;-80
2021/06/07 03:55:48;;;;;;;10.73;9.02;;;;;;;17.47;70.75;99353.72;6159327;23;20017;-80
2021/06/07 03:58:14;;;;;;;10.70;9.55;;;;;;;17.63;70.68;99357.19;6158500;23;20108;-82
2021/06/07 04:00:41;;;;;;;10.68;8.60;;;;;;;17.77;69.55;99354.34;6182753;23;20404;-79
2021/06/07 04:03:08;;;;;;;8.57;7.65;;;;;;;17.91;68.20;99355.19;6181990;23;20021;-81
2021/06/07 04:05:35;;;;;;;8.52;7.10;;;;;;;17.98;68.01;99356.06;6157182;23;20013;-81
2021/06/07 04:08:02;;;;;;;8.50;7.13;;;;;;;18.02;67.65;99357.31;6182816;23;20037;-80
2021/06/07 04:10:28;;;;;;;8.68;7.63;;;;;;;18.06;67.75;99364.09;6155977;23;20025;-81
2021/06/07 04:12:55;;;;;;;8.57;7.15;;;;;;;18.12;67.56;99361.56;6186541;23;20232;-80
2021/06/07 04:15:24;;;;;;;13.02;7.63;;;;;;;18.16;67.56;99362.84;6191046;23;20080;-84
2021/06/07 04:17:51;;;;;;;7.43;6.57;;;;;;;18.18;67.41;99366.22;6165939;23;20028;-83
2021/06/07 04:20:20;;;;;;;7.90;6.45;;;;;;;18.12;67.75;99354.19;6176791;23;20086;-83
2021/06/07 04:22:47;;;;;;;7.55;6.85;;;;;;;18.27;67.04;99354.00;6139535;23;20021;-84
2021/06/07 04:25:17;;;;;;;7.28;6.57;;;;;;;18.36;67.02;99369.19;6162958;23;20501;-86
2021/06/07 04:27:43;;;;;;;7.30;6.60;;;;;;;18.53;66.78;99370.44;6138796;23;20297;-82
2021/06/07 04:30:12;;;;;;;9.55;6.80;;;;;;;18.69;66.44;99362.91;6193419;23;20069;-84
2021/06/07 04:32:43;;;;;;;6.97;6.38;;;;;;;18.99;65.75;99368.81;6094892;23;20115;-83
2021/06/07 04:35:16;;;;;;;7.22;6.40;;;;;;;19.43;64.25;99368.06;6168534;23;20039;-85
2021/06/07 04:37:49;;;;;;;7.65;6.88;;;;;;;19.63;63.80;99364.44;6190645;23;20021;-84
2021/06/07 04:40:17;;;;;;;7.60;6.75;;;;;;;20.21;62.17;99365.19;6140821;23;20347;-83
2021/06/07 04:42:43;;;;;;;8.00;7.20;;;;;;;20.13;62.27;99364.63;6195319;23;20021;-84
2021/06/07 04:45:11;;;;;;;8.18;7.47;;;;;;;19.86;62.77;99364.78;6172476;23;20021;-84
2021/06/07 04:47:37;;;;;;;9.85;7.53;;;;;;;19.64;63.78;99366.16;6141146;23;20032;-84
2021/06/07 04:50:07;;;;;;;11.02;7.55;;;;;;;19.67;64.02;99365.69;6138565;23;20017;-83
2021/06/07 04:52:36;;;;;;;10.55;7.75;;;;;;;19.85;62.68;99368.56;6114744;23;20064;-82
2021/06/07 04:55:03;;;;;;;9.52;8.13;;;;;;;19.75;63.08;99362.72;6196564;23;20005;-87
2021/06/07 04:57:39;;;;;;;9.05;7.32;;;;;;;20.03;62.72;99369.75;6186953;23;20017;-82
2021/06/07 05:00:08;;;;;;;9.10;7.38;;;;;;;20.09;62.50;99361.47;6137894;23;20064;-85
2021/06/07 05:02:34;;;;;;;8.02;7.20;;;;;;;20.43;61.60;99365.66;6137051;23;20036;-81
2021/06/07 05:05:00;;;;;;;11.10;7.55;;;;;;;21.06;61.03;99369.41;6165588;23;20569;-84
2021/06/07 05:07:27;;;;;;;9.65;7.00;;;;;;;21.47;59.17;99370.72;6167049;23;20068;-85
2021/06/07 05:09:53;;;;;;;8.18;6.97;;;;;;;22.19;57.25;99368.13;6167768;23;20127;-83
2021/06/07 05:12:19;;;;;;;9.77;6.65;;;;;;;23.03;56.32;99368.91;6192647;23;20017;-83
2021/06/07 05:14:46;;;;;;;8.15;6.38;;;;;;;23.67;54.88;99367.09;6162994;23;20104;-83
2021/06/07 05:17:13;;;;;;;6.72;6.10;;;;;;;23.83;53.75;99362.72;6142860;23;20025;-84
2021/06/07 05:19:39;;;;;;;10.18;5.47;;;;;;;24.36;52.30;99374.53;6137845;23;20442;-82
2021/06/07 05:22:05;;;;;;;5.22;4.80;;;;;;;24.84;50.21;99367.66;6194376;23;20025;-82
2021/06/07 05:24:31;;;;;;;4.53;4.13;;;;;;;25.11;49.61;99374.19;6164180;23;20017;-83
2021/06/07 05:26:57;;;;;;;7.68;4.18;;;;;;;25.33;48.57;99370.63;6165973;23;20028;-83
2021/06/07 05:29:23;;;;;;;4.78;4.30;;;;;;;25.48;47.83;99373.63;6145500;23;20016;-84
2021/06/07 05:31:49;;;;;;;4.95;3.50;;;;;;;25.34;48.01;99369.53;6171434;23;20036;-86
2021/06/07 05:34:18;;;;;;;4.70;3.78;;;;;;;25.71;47.51;99362.31;6145931;23;20027;-83
2021/06/07 05:36:44;;;;;;;4.28;3.88;;;;;;;25.82;48.08;99373.56;6171640;23;20217;-84
2021/06/07 05:39:14;;;;;;;8.80;3.90;;;;;;;25.74;47.47;99361.81;6168621;23;20059;-83
2021/06/07 05:41:40;;;;;;;7.13;4.05;;;;;;;26.24;46.10;99364.59;6190704;23;20360;-83
2021/06/07 05:44:06;;;;;;;4.80;4.28;;;;;;;26.47;45.80;99358.75;6191224;23;20029;-86
2021/06/07 05:46:57;;;;;;;4.43;3.33;;;;;;;26.44;45.29;99357.34;6140769;23;20032;-86
2021/06/07 05:49:23;;;;;;;6.53;3.88;;;;;;;26.74;45.29;99367.06;6144843;23;20017;-83
2021/06/07 05:51:50;;;;;;;11.80;4.43;;;;;;;27.14;44.10;99365.75;6140692;23;20470;-84
2021/06/07 05:54:16;;;;;;;6.55;3.35;;;;;;;27.39;43.79;99373.41;6142272;23;20084;-86
2021/06/07 05:56:42;;;;;;;5.82;3.30;;;;;;;27.43;43.75;99371.75;6187287;23;20414;-81
2021/06/07 05:59:08;;;;;;;4.15;3.58;;;;;;;27.85;43.20;99368.09;6187534;23;20021;-83
2021/06/07 06:01:35;;;;;;;5.72;3.08;;;;;;;28.02;42.41;99362.34;6134237;23;20028;-84
2021/06/07 06:04:02;;;;;;;3.83;3.15;;;;;;;28.53;42.04;99360.53;6157956;23;20017;-82
2021/06/07 06:06:29;;;;;;;5.72;3.90;;;;;;;28.61;41.80;99364.72;6183257;23;20021;-85
2021/06/07 06:08:55;;;;;;;6.95;3.78;;;;;;;28.82;41.60;99365.56;6136756;23;20017;-82
2021/06/07 06:11:22;;;;;;;5.90;4.55;;;;;;;29.19;40.91;99365.28;6109419;23;20075;-83
2021/06/07 06:13:49;;;;;;;11.60;3.83;;;;;;;28.94;41.06;99365.28;6133844;23;20025;-82
2021/06/07 06:16:18;;;;;;;8.02;2.70;;;;;;;28.08;41.95;99367.66;6141306;23;20085;-84
2021/06/07 06:18:45;;;;;;;4.57;2.90;;;;;;;27.92;42.55;99371.47;6166487;23;20025;-83
2021/06/07 06:21:12;;;;;;;8.40;2.83;;;;;;;27.89;42.47;99358.09;6164110;23;20044;-82
2021/06/07 06:23:39;;;;;;;3.70;2.08;;;;;;;27.40;43.94;99366.75;6164505;23;20021;-84
2021/06/07 06:26:06;;;;;;;8.50;2.65;;;;;;;27.43;43.99;99360.66;6192738;23;20065;-84
2021/06/07 06:28:35;;;;;;;7.60;3.20;;;;;;;28.07;42.88;99365.94;6121814;23;20028;-83
2021/06/07 06:31:12;;;;;;;8.10;3.17;;;;;;;28.21;42.84;99362.66;6151487;23;20020;-85
2021/06/07 06:33:38;;;;;;;5.40;3.42;;;;;;;28.50;42.20;99355.50;6201762;23;20017;-86
2021/06/07 06:36:05;;;;;;;7.85;3.25;;;;;;;29.36;40.49;99364.94;6148886;23;20076;-86
2021/06/07 06:38:31;;;;;;;8.27;3.40;;;;;;;28.94;40.86;99352.19;6116513;23;20071;-84
2021/06/07 06:40:57;;;;;;;4.10;2.53;;;;;;;28.94;41.34;99354.13;6189865;23;20021;-84
2021/06/07 06:43:23;;;;;;;10.70;3.30;;;;;;;28.30;42.22;99359.09;6136962;23;20021;-83
2021/06/07 06:45:49;;;;;;;5.20;3.40;;;;;;;29.54;40.37;99360.72;6185238;23;20029;-85
2021/06/07 06:48:16;;;;;;;4.90;3.50;;;;;;;29.58;39.62;99361.00;6159781;23;20442;-83
2021/06/07 06:50:43;;;;;;;6.45;2.90;;;;;;;29.42;39.92;99363.81;6160395;23;20072;-83
2021/06/07 06:53:18;;;;;;;5.18;3.13;;;;;;;29.58;39.79;99367.44;6163852;23;20016;-85
2021/06/07 06:55:45;;;;;;;5.20;2.25;;;;;;;28.37;41.45;99353.22;6190557;23;20025;-82
2021/06/07 06:58:11;;;;;;;4.63;2.30;;;;;;;28.32;41.35;99356.84;6167011;23;20059;-84
2021/06/07 07:00:41;;;;;;;5.30;3.88;;;;;;;29.25;39.80;99369.72;6189064;23;20104;-82
2021/06/07 07:03:08;;;;;;;5.50;3.60;;;;;;;30.26;38.34;99366.88;6160987;23;20040;-84
2021/06/07 07:05:34;;;;;;;8.50;3.45;;;;;;;30.97;37.44;99360.81;6187271;23;20021;-83
2021/06/07 07:08:00;;;;;;;5.28;3.30;;;;;;;30.98;37.61;99367.22;6190350;23;20044;-82
2021/06/07 07:10:26;;;;;;;3.60;3.30;;;;;;;30.22;38.49;99361.06;6138294;23;20039;-83
2021/06/07 07:12:52;;;;;;;3.05;2.60;;;;;;;30.01;38.78;99365.88;6188951;23;20036;-84
2021/06/07 07:15:19;;;;;;;4.35;2.65;;;;;;;29.32;39.11;99358.28;6163835;23;20017;-82
2021/06/07 07:17:48;;;;;;;4.38;3.60;;;;;;;29.25;38.89;99369.72;6165670;23;20021;-83
2021/06/07 07:20:14;;;;;;;28.95;4.97;;;;;;;30.21;38.19;99358.56;6192846;23;20083;-82
2021/06/07 07:22:41;;;;;;;4.50;2.40;;;;;;;29.28;38.95;99376.66;6139671;23;20028;-84
2021/06/07 07:25:08;;;;;;;3.92;2.53;;;;;;;28.44;40.23;99359.38;6166312;23;20076;-82
2021/06/07 07:27:36;;;;;;;4.10;3.70;;;;;;;29.02;39.90;99364.72;6165607;23;20031;-83
2021/06/07 07:30:05;;;;;;;8.40;3.72;;;;;;;30.47;37.59;99368.44;6169309;23;20368;-82
2021/06/07 07:32:31;;;;;;;4.10;3.20;;;;;;;30.98;36.59;99370.03;6143354;23;20031;-84
2021/06/07 07:34:57;;;;;;;1.98;1.70;;;;;;;29.57;38.12;99365.72;6196108;23;20017;-81
2021/06/07 07:37:23;;;;;;;3.15;1.88;;;;;;;30.00;38.21;99363.38;6193733;23;20024;-81
2021/06/07 07:39:49;;;;;;;3.85;2.13;;;;;;;28.95;39.72;99364.97;6193104;23;20071;-82
2021/06/07 07:42:15;;;;;;;3.42;1.90;;;;;;;28.62;40.29;99365.53;6191666;23;20077;-82
2021/06/07 07:44:41;;;;;;;2.90;1.75;;;;;;;28.21;40.75;99365.44;6187744;23;20024;-82
2021/06/07 07:47:07;;;;;;;4.35;3.42;;;;;;;29.27;39.33;99372.22;6166256;23;20064;-84
2021/06/07 07:49:34;;;;;;;1.65;1.50;;;;;;;28.85;39.69;99376.13;6164775;23;20040;-82
2021/06/07 07:52:01;;;;;;;5.85;2.28;;;;;;;27.70;41.65;99370.78;6162998;23;20032;-82
2021/06/07 07:54:27;;;;;;;4.03;2.35;;;;;;;27.97;41.31;99371.47;6140229;23;20079;-82
2021/06/07 07:56:52;;;;;;;10.55;2.63;;;;;;;27.78;41.48;99370.28;6163898;23;20040;-81
2021/06/07 07:59:18;;;;;;;10.10;3.67;;;;;;;29.14;39.69;99372.78;6141069;23;20135;-82
2021/06/07 08:01:45;;;;;;;3.97;2.28;;;;;;;29.77;39.09;99371.28;6140922;23;20029;-83
2021/06/07 08:04:11;;;;;;;4.10;3.78;;;;;;;29.76;38.75;99364.03;6170360;23;20028;-84
2021/06/07 08:06:37;;;;;;;4.05;2.10;;;;;;;29.46;39.01;99364.09;6169435;23;20021;-85
2021/06/07 08:09:04;;;;;;;6.68;3.20;;;;;;;28.41;40.72;99354.41;6167328;23;20021;-82
2021/06/07 08:11:29;;;;;;;7.05;4.35;;;;;;;28.75;40.22;99363.03;6139648;23;20097;-83
2021/06/07 08:13:55;;;;;;;7.07;4.15;;;;;;;30.57;37.48;99361.09;6193960;23;20046;-82
2021/06/07 08:16:21;;;;;;;6.75;4.60;;;;;;;32.21;35.85;99360.28;6151720;23;20337;-82
2021/06/07 08:18:47;;;;;;;5.43;4.30;;;;;;;32.60;34.71;99363.63;6178576;23;20009;-84
2021/06/07 08:21:13;;;;;;;4.40;2.50;;;;;;;31.16;36.11;99362.88;6151190;23;20088;-82
2021/06/07 08:23:39;;;;;;;5.28;2.90;;;;;;;30.27;37.57;99354.59;6206454;23;20028;-81
2021/06/07 08:26:05;;;;;;;5.47;2.88;;;;;;;29.72;38.78;99351.78;6150444;23;20020;-83
2021/06/07 08:28:31;;;;;;;5.85;4.97;;;;;;;31.67;36.67;99349.22;6168912;23;20518;-82
2021/06/07 08:30:57;;;;;;;12.30;3.10;;;;;;;30.83;37.31;99354.22;6166793;23;20039;-81
2021/06/07 08:33:23;;;;;;;4.93;4.63;;;;;;;31.16;36.82;99351.69;6194027;23;20048;-84
2021/06/07 08:35:49;;;;;;;4.85;4.35;;;;;;;31.15;36.82;99350.00;6164987;23;20116;-83
2021/06/07 08:38:16;;;;;;;8.00;5.40;;;;;;;32.51;34.61;99343.06;6190911;23;20096;-85
2021/06/07 08:40:42;;;;;;;6.82;4.28;;;;;;;31.52;35.79;99348.53;6168825;23;20119;-85
2021/06/07 08:43:09;;;;;;;9.73;5.43;;;;;;;31.88;35.21;99347.00;6187893;23;179758;-84
2021/06/07 08:45:35;;;;;;;4.72;4.32;;;;;;;32.96;33.98;99349.06;6167348;23;20384;-83
2021/06/07 08:48:10;;;;;;;5.30;4.30;;;;;;;34.02;32.62;99350.16;6196300;23;20060;-83
2021/06/07 08:50:36;;;;;;;6.20;3.20;;;;;;;33.01;33.54;99340.56;6198657;23;20025;-82
2021/06/07 08:53:02;;;;;;;5.35;4.35;;;;;;;33.70;32.78;99339.84;6106149;23;20021;-82
2021/06/07 08:55:31;;;;;;;7.97;5.03;;;;;;;33.68;32.27;99342.97;6177241;23;20020;-85
2021/06/07 08:57:57;;;;;;;6.90;3.08;;;;;;;32.41;34.12;99338.47;6166889;23;20088;-81
2021/06/07 09:00:26;;;;;;;6.05;3.10;;;;;;;31.09;36.23;99323.28;6169627;23;20017;-83
2021/06/07 09:03:06;;;;;;;9.10;5.32;;;;;;;32.28;35.09;99339.19;6140696;23;20016;-85
2021/06/07 09:05:32;;;;;;;4.05;3.70;;;;;;;32.90;32.59;99328.69;6162939;23;20040;-83
2021/06/07 09:08:04;;;;;;;10.00;4.80;;;;;;;33.68;32.20;99340.19;6162501;23;20029;-83
2021/06/07 09:10:31;;;;;;;;;;;;;;;34.40;31.13;99330.19;6192509;23;20046;-81
2021/06/07 09:13:03;;;;;;;10.10;4.40;;;;;;;35.06;30.52;99319.31;6163329;23;19920;-84
2021/06/07 09:15:30;;;;;;;4.90;3.60;;;;;;;35.99;30.29;99322.06;6139147;23;20063;-83
2021/06/07 09:17:57;;;;;;;4.15;2.50;;;;;;;35.37;30.31;99308.06;6189081;23;20017;-83
2021/06/07 09:20:24;;;;;;;3.67;2.70;;;;;;;33.77;31.56;99323.44;6163972;23;20025;-85
2021/06/07 09:22:59;;;;;;;5.70;3.28;;;;;;;32.27;34.31;99317.94;6161132;23;20018;-83
2021/06/07 09:25:28;;;;;;;5.32;3.88;;;;;;;31.46;35.57;99306.69;6138513;23;20021;-83
2021/06/07 09:28:08;;;;;;;5.55;4.05;;;;;;;32.93;33.19;99309.63;6138747;23;20027;-81
2021/06/07 09:31:10;;;;;;;5.00;4.13;;;;;;;34.62;31.53;99299.34;6138985;23;20132;-81
2021/06/07 09:33:39;;;;;;;4.30;3.90;;;;;;;35.48;29.90;99299.00;6074787;23;20334;-85
2021/06/07 09:36:34;;;;;;;4.78;4.35;;;;;;;35.99;29.36;99299.53;6171159;23;20025;-84
2021/06/07 09:39:15;;;;;;;3.88;3.50;;;;;;;36.46;28.32;99294.09;6172545;23;20020;-86
2021/06/07 09:41:58;;;;;;;4.88;3.97;;;;;;;35.97;29.50;99299.81;6137507;23;20074;-84
2021/06/07 09:44:48;;;;;;;10.00;3.55;;;;;;;36.56;28.08;99296.59;6138461;23;20099;-84
2021/06/07 09:47:21;;;;;;;15.32;3.67;;;;;;;35.62;29.68;99287.69;6164009;23;20028;-82
2021/06/07 09:49:49;;;;;;;4.25;3.85;;;;;;;36.09;29.06;99284.31;6164459;23;20504;-82
2021/06/07 09:52:19;;;;;;;3.30;2.85;;;;;;;33.34;32.72;99290.91;6161843;23;20025;-82
2021/06/07 09:54:45;;;;;;;4.50;4.13;;;;;;;32.60;33.16;99292.81;6113868;23;20023;-82
2021/06/07 09:57:11;;;;;;;4.00;3.60;;;;;;;34.23;31.93;99286.81;6188776;23;20024;-83
2021/06/07 09:59:40;;;;;;;4.30;3.67;;;;;;;35.00;30.24;99277.31;6164607;23;20029;-83
2021/06/07 10:02:21;;;;;;;5.55;3.83;;;;;;;34.96;29.60;99270.66;6161532;23;20111;-85
2021/06/07 10:04:55;;;;;;;4.53;2.58;;;;;;;34.32;30.55;99267.22;6162596;23;20020;-86
2021/06/07 10:07:25;;;;;;;2.80;2.60;;;;;;;32.30;33.59;99268.94;6166871;23;20101;-83
2021/06/07 10:10:11;;;;;;;3.85;2.70;;;;;;;30.99;35.24;99257.19;6168763;23;20116;-84
2021/06/07 10:12:41;;;;;;;4.82;3.55;;;;;;;30.99;35.10;99260.81;6194403;23;20025;-84
2021/06/07 10:15:15;;;;;;;3.30;2.53;;;;;;;30.63;36.19;99254.72;6163398;23;20120;-84
2021/06/07 10:17:41;;;;;;;;;;;;;;;30.31;36.62;99249.69;6140551;23;20017;-85
2021/06/07 10:22:41;;;;;;;9.07;3.80;;;;;;;30.11;37.33;99252.63;6166970;23;20108;-82
2021/06/07 10:25:09;;;;;;;3.90;2.80;;;;;;;28.95;38.22;99264.78;6191779;23;20025;-83
2021/06/07 10:27:36;;;;;;;3.65;2.80;;;;;;;28.70;38.66;99257.31;6191378;23;20068;-83
2021/06/07 10:30:21;;;;;;;2.78;2.58;;;;;;;28.47;38.96;99264.28;6186829;23;20021;-82
2021/06/07 10:32:48;;;;;;;3.10;2.90;;;;;;;27.13;41.60;99248.34;6161580;23;20024;-84
2021/06/07 10:35:30;;;;;;;4.63;2.88;;;;;;;26.89;42.27;99255.38;6191033;23;20248;-84
2021/06/07 10:38:08;;;;;;;4.13;3.75;;;;;;;26.58;43.49;99252.41;6136888;23;20029;-81
2021/06/07 10:40:41;;;;;;;3.05;2.53;;;;;;;26.58;42.37;99248.78;6142616;23;20029;-86
2021/06/07 10:43:09;;;;;;;8.13;4.60;;;;;;;26.28;44.39;99263.22;6168386;23;20028;-84
2021/06/07 10:45:40;;;;;;;4.30;3.03;;;;;;;25.94;44.14;99246.81;6167892;23;20474;-84
2021/06/07 10:48:07;;;;;;;9.75;3.38;;;;;;;25.64;44.92;99259.22;6168848;23;20017;-84
2021/06/07 10:50:44;;;;;;;6.28;4.07;;;;;;;25.52;46.24;99265.97;6145252;23;20027;-84
2021/06/07 10:53:21;;;;;;;6.38;3.42;;;;;;;25.18;46.72;99264.19;6175157;23;20028;-82
2021/06/07 10:55:47;;;;;;;4.07;3.22;;;;;;;24.96;47.13;99260.53;6170328;23;20060;-82
2021/06/07 10:58:14;;;;;;;4.57;3.92;;;;;;;24.83;47.61;99266.41;6195177;23;20017;-85
2021/06/07 11:00:41;;;;;;;6.05;4.90;;;;;;;24.86;48.31;99268.66;6195107;23;20027;-83
2021/06/07 11:03:18;;;;;;;6.05;4.50;;;;;;;24.42;49.89;99287.88;6193464;23;20032;-84
2021/06/07 11:05:45;;;;;;;5.63;4.60;;;;;;;24.30;50.63;99297.03;6193625;23;20038;-82
2021/06/07 11:08:31;;;;;;;4.28;3.88;;;;;;;23.41;53.14;99290.34;6193158;23;20104;-81
2021/06/07 11:11:02;;;;;;;5.78;4.28;;;;;;;22.97;53.95;99267.88;6193086;23;20036;-82
2021/06/07 11:13:45;;;;;;;7.55;4.18;;;;;;;22.70;53.48;99254.53;6161784;23;20063;-83
2021/06/07 11:16:24;;;;;;;5.22;3.85;;;;;;;22.62;54.57;99257.66;6159296;23;20071;-85
2021/06/07 11:18:58;;;;;;;6.03;4.93;;;;;;;22.80;55.63;99260.28;6161573;23;20017;-84
2021/06/07 11:21:39;;;;;;;8.88;5.30;;;;;;;22.87;55.45;99254.66;6137973;23;20382;-84
2021/06/07 11:24:25;;;;;;;5.85;5.18;;;;;;;23.32;54.91;99260.34;6137206;23;20068;-85
2021/06/07 11:26:51;;;;;;;5.38;4.88;;;;;;;23.53;53.92;99258.03;6136115;23;20324;-83
2021/06/07 11:29:17;;;;;;;6.22;5.60;;;;;;;23.99;54.28;99256.19;6136283;23;20025;-82
2021/06/07 11:32:10;;;;;;;5.68;5.10;;;;;;;24.39;53.60;99258.84;6187440;23;20025;-85
2021/06/07 11:34:38;;;;;;;7.18;5.47;;;;;;;24.90;52.24;99256.00;6183232;23;20075;-83
2021/06/07 11:37:08;;;;;;;5.97;5.47;;;;;;;25.13;52.13;99249.47;6188571;23;20032;-82
2021/06/07 11:39:43;;;;;;;7.13;5.05;;;;;;;25.08;50.73;99247.41;6163113;23;20017;-83
2021/06/07 11:42:11;;;;;;;5.85;5.10;;;;;;;25.08;51.09;99254.88;6189613;23;20017;-81